createdAt,value
2022-10-11T00:01:46.313Z,84.04
2022-10-11T00:04:14.168Z,84.00
2022-10-11T00:06:43.496Z,84.18
2022-10-11T00:09:12.417Z,84.03
2022-10-11T00:11:41.593Z,84.41
2022-10-11T00:14:09.404Z,84.78
2022-10-11T00:16:38.545Z,85.02
2022-10-11T00:19:06.272Z,84.90
2022-10-11T00:21:34.003Z,84.96
2022-10-11T00:24:01.699Z,84.70
2022-10-11T00:26:29.860Z,84.68
2022-10-11T00:28:58.987Z,84.58
2022-10-11T00:31:26.767Z,84.86
2022-10-11T00:33:54.740Z,84.91
2022-10-11T00:36:24.949Z,84.86
2022-10-11T00:38:52.876Z,84.66
2022-10-11T00:41:20.626Z,84.31
2022-10-11T00:43:48.390Z,84.15
2022-10-11T00:46:31.007Z,83.83
2022-10-11T00:49:04.057Z,84.03
2022-10-11T00:51:40.293Z,84.91
2022-10-11T00:54:12.654Z,84.84
2022-10-11T00:56:42.354Z,84.64
2022-10-11T00:59:13.566Z,84.45
2022-10-11T01:01:42.622Z,84.40
2022-10-11T01:04:10.428Z,84.22
2022-10-11T01:06:38.222Z,83.78
2022-10-11T01:09:06.536Z,83.98
2022-10-11T01:11:37.518Z,84.61
2022-10-11T01:14:26.513Z,85.08
2022-10-11T01:17:01.122Z,84.96
2022-10-11T01:19:56.013Z,84.72
2022-10-11T01:22:50.054Z,84.81
2022-10-11T01:25:25.777Z,84.77
2022-10-11T01:28:05.843Z,84.84
2022-10-11T01:30:36.142Z,85.09
2022-10-11T01:33:18.251Z,85.13
2022-10-11T01:35:50.022Z,85.07
2022-10-11T01:38:24.242Z,85.06
2022-10-11T01:40:56.240Z,85.10
2022-10-11T01:43:26.325Z,85.23
2022-10-11T01:45:58.481Z,85.40
2022-10-11T01:48:26.414Z,85.39
2022-10-11T01:50:56.888Z,85.06
2022-10-11T01:53:35.699Z,84.94
2022-10-11T01:56:10.767Z,85.35
2022-10-11T01:58:53.442Z,85.41
2022-10-11T02:01:32.231Z,85.41
2022-10-11T02:04:06.496Z,85.32
2022-10-11T02:06:41.013Z,85.36
2022-10-11T02:09:16.485Z,85.42
2022-10-11T02:11:44.494Z,85.23
2022-10-11T02:14:14.406Z,85.21
2022-10-11T02:16:47.308Z,85.44
2022-10-11T02:19:19.608Z,85.46
2022-10-11T02:21:53.690Z,85.31
2022-10-11T02:24:27.228Z,85.25
2022-10-11T02:26:57.946Z,85.34
2022-10-11T02:29:28.887Z,85.64
2022-10-11T02:32:00.557Z,85.69
2022-10-11T02:34:32.445Z,85.42
2022-10-11T02:37:06.004Z,85.11
2022-10-11T02:39:42.061Z,85.09
2022-10-11T02:42:15.856Z,85.09
2022-10-11T02:44:48.215Z,84.79
2022-10-11T02:47:17.835Z,84.76
2022-10-11T02:49:46.216Z,84.81
2022-10-11T02:52:15.273Z,84.81
2022-10-11T02:54:43.007Z,84.93
2022-10-11T02:57:10.717Z,85.01
2022-10-11T02:59:38.480Z,85.14
2022-10-11T03:02:06.331Z,85.13
2022-10-11T03:04:35.496Z,85.24
2022-10-11T03:07:03.245Z,85.19
2022-10-11T03:09:31.011Z,85.04
2022-10-11T03:11:58.741Z,85.06
2022-10-11T03:14:26.521Z,85.01
2022-10-11T03:16:54.281Z,85.56
2022-10-11T03:19:22.015Z,85.85
2022-10-11T03:21:51.119Z,86.34
2022-10-11T03:24:18.865Z,86.11
2022-10-11T03:26:46.608Z,86.49
2022-10-11T03:29:14.516Z,86.40
2022-10-11T03:31:42.261Z,86.39
2022-10-11T03:34:10.544Z,86.21
2022-10-11T03:36:38.390Z,86.16
2022-10-11T03:39:07.745Z,86.27
2022-10-11T03:41:35.607Z,86.62
2022-10-11T03:44:03.607Z,86.57
2022-10-11T03:46:31.738Z,86.72
2022-10-11T03:48:59.473Z,86.95
2022-10-11T03:51:27.357Z,86.79
2022-10-11T03:53:55.123Z,86.39
2022-10-11T03:56:24.247Z,86.30
2022-10-11T03:58:51.988Z,85.97
2022-10-11T04:01:20.086Z,85.90
2022-10-11T04:03:47.933Z,86.36
2022-10-11T04:06:15.688Z,86.41
2022-10-11T04:08:43.457Z,86.57
2022-10-11T04:11:11.193Z,86.59
2022-10-11T04:13:40.316Z,86.25
2022-10-11T04:16:08.681Z,86.36
2022-10-11T04:18:36.575Z,85.99
2022-10-11T04:21:04.543Z,86.09
2022-10-11T04:23:33.306Z,86.25
2022-10-11T04:26:01.438Z,86.17
2022-10-11T04:28:29.448Z,85.79
2022-10-11T04:30:58.840Z,85.93
2022-10-11T04:33:26.652Z,86.13
2022-10-11T04:35:54.731Z,86.22
2022-10-11T04:38:22.718Z,86.48
2022-10-11T04:40:50.812Z,86.89
2022-10-11T04:43:18.995Z,87.36
2022-10-11T04:45:46.730Z,87.19
2022-10-11T04:48:15.833Z,87.28
2022-10-11T04:50:45.386Z,87.22
2022-10-11T04:53:17.239Z,87.16
2022-10-11T04:55:45.001Z,86.99
2022-10-11T04:58:12.688Z,87.01
2022-10-11T05:00:40.422Z,87.12
2022-10-11T05:03:08.158Z,86.74
2022-10-11T05:05:37.265Z,86.81
2022-10-11T05:08:05.210Z,86.66
2022-10-11T05:10:32.965Z,86.42
2022-10-11T05:13:00.691Z,86.34
2022-10-11T05:15:28.478Z,86.22
2022-10-11T05:17:56.225Z,86.31
2022-10-11T05:20:23.938Z,86.33
2022-10-11T05:22:53.067Z,86.10
2022-10-11T05:25:20.806Z,86.15
2022-10-11T05:27:48.715Z,86.31
2022-10-11T05:30:16.488Z,86.58
2022-10-11T05:32:44.305Z,86.58
2022-10-11T05:35:12.027Z,86.78
2022-10-11T05:37:39.780Z,86.37
2022-10-11T05:40:10.949Z,86.41
2022-10-11T05:42:38.740Z,86.34
2022-10-11T05:45:07.672Z,86.45
2022-10-11T05:47:35.481Z,87.08
2022-10-11T05:50:03.197Z,87.45
2022-10-11T05:52:31.698Z,87.23
2022-10-11T05:54:59.418Z,87.33
2022-10-11T05:57:28.560Z,87.07
2022-10-11T05:59:56.319Z,87.14
2022-10-11T06:02:24.073Z,87.12
2022-10-11T06:04:51.792Z,86.92
2022-10-11T06:07:19.542Z,86.95
2022-10-11T06:09:47.273Z,87.06
2022-10-11T06:12:15.232Z,86.79
2022-10-11T06:14:44.558Z,86.84
2022-10-11T06:17:12.289Z,86.81
2022-10-11T06:19:40.108Z,86.59
2022-10-11T06:22:07.866Z,86.18
2022-10-11T06:24:35.648Z,86.20
2022-10-11T06:27:12.984Z,85.67
2022-10-11T06:29:41.254Z,85.47
2022-10-11T06:32:10.349Z,85.02
2022-10-11T06:34:38.074Z,84.60
2022-10-11T06:37:05.881Z,84.23
2022-10-11T06:39:34.438Z,83.83
2022-10-11T06:42:02.207Z,83.59
2022-10-11T06:44:30.082Z,83.37
2022-10-11T06:46:57.826Z,83.01
2022-10-11T06:49:26.897Z,82.57
2022-10-11T06:51:54.622Z,81.92
2022-10-11T06:54:22.427Z,81.81
2022-10-11T06:56:50.185Z,81.39
2022-10-11T06:59:17.955Z,81.30
2022-10-11T07:01:45.745Z,81.34
2022-10-11T07:04:13.492Z,81.42
2022-10-11T07:06:43.066Z,81.76
2022-10-11T07:09:10.984Z,82.78
2022-10-11T07:11:38.776Z,83.47
2022-10-11T07:14:07.893Z,83.46
2022-10-11T07:16:37.253Z,83.36
2022-10-11T07:19:06.502Z,82.97
2022-10-11T07:21:36.037Z,82.47
2022-10-11T07:24:05.837Z,81.81
2022-10-11T07:26:38.819Z,80.43
2022-10-11T07:29:07.752Z,77.92
2022-10-11T07:31:37.224Z,75.22
2022-10-11T07:34:05.026Z,73.63
2022-10-11T07:36:32.813Z,70.83
2022-10-11T07:39:00.607Z,68.37
2022-10-11T07:41:29.811Z,66.69
2022-10-11T07:43:57.552Z,65.97
2022-10-11T07:46:25.466Z,64.96
2022-10-11T07:48:53.460Z,64.49
2022-10-11T07:51:22.608Z,64.78
2022-10-11T07:53:51.883Z,64.13
2022-10-11T07:56:21.468Z,65.95
2022-10-11T07:58:53.706Z,67.34
2022-10-11T08:01:22.207Z,68.11
2022-10-11T08:03:51.116Z,68.48
2022-10-11T08:06:21.190Z,67.50
2022-10-11T08:08:50.761Z,65.77
2022-10-11T08:11:22.929Z,62.39
2022-10-11T08:13:52.362Z,57.60
2022-10-11T08:16:20.376Z,55.28
2022-10-11T08:18:48.200Z,54.03
2022-10-11T08:21:18.890Z,51.40
2022-10-11T08:23:46.945Z,50.58
2022-10-11T08:26:15.228Z,49.18
2022-10-11T08:28:43.044Z,48.93
2022-10-11T08:31:15.628Z,49.30
2022-10-11T08:33:43.617Z,48.73
2022-10-11T08:36:12.241Z,48.82
2022-10-11T08:38:41.021Z,48.24
2022-10-11T08:41:26.584Z,48.44
2022-10-11T08:44:06.041Z,48.06
2022-10-11T08:46:37.981Z,48.68
2022-10-11T08:49:09.655Z,49.59
2022-10-11T08:51:43.564Z,50.50
2022-10-11T08:54:17.932Z,51.38
2022-10-11T08:56:47.024Z,50.96
2022-10-11T08:59:30.499Z,50.16
2022-10-11T09:02:10.717Z,49.87
2022-10-11T09:04:38.508Z,50.48
2022-10-11T09:07:12.833Z,50.92
2022-10-11T09:09:53.050Z,49.46
2022-10-11T09:12:38.397Z,49.90
2022-10-11T09:15:20.948Z,49.08
2022-10-11T09:18:02.451Z,49.79
2022-10-11T09:20:44.690Z,49.15
2022-10-11T09:23:24.497Z,49.11
2022-10-11T09:25:59.573Z,48.38
2022-10-11T09:28:38.244Z,47.70
2022-10-11T09:31:11.121Z,47.07
2022-10-11T09:33:45.180Z,46.65
2022-10-11T09:36:20.816Z,46.68
2022-10-11T09:38:55.462Z,44.80
2022-10-11T09:41:31.681Z,44.40
2022-10-11T09:43:59.674Z,43.59
2022-10-11T09:46:35.692Z,44.01
2022-10-11T09:49:09.817Z,42.92
2022-10-11T09:51:38.058Z,42.44
2022-10-11T09:54:07.396Z,42.45
2022-10-11T09:56:42.998Z,42.75
2022-10-11T09:59:22.020Z,42.47
2022-10-11T10:01:50.199Z,41.54
2022-10-11T10:04:19.393Z,42.06
2022-10-11T10:06:47.158Z,42.10
2022-10-11T10:09:28.433Z,42.45
2022-10-11T10:11:57.292Z,43.01
2022-10-11T10:14:28.009Z,42.07
2022-10-11T10:17:02.013Z,41.35
2022-10-11T10:19:43.893Z,40.22
2022-10-11T10:22:18.621Z,39.82
2022-10-11T10:24:48.213Z,40.29
2022-10-11T10:27:18.978Z,39.34
2022-10-11T10:30:02.776Z,40.58
2022-10-11T10:32:37.946Z,40.75
2022-10-11T10:35:17.479Z,39.80
2022-10-11T10:37:50.387Z,39.69
2022-10-11T10:40:22.627Z,38.19
2022-10-11T10:42:51.502Z,38.69
2022-10-11T10:45:21.696Z,37.77
2022-10-11T10:48:06.475Z,37.56
2022-10-11T10:50:53.694Z,37.11
2022-10-11T10:53:30.220Z,36.76
2022-10-11T10:56:05.457Z,36.15
2022-10-11T10:59:02.667Z,36.33
2022-10-11T11:01:33.659Z,36.93
2022-10-11T11:04:11.290Z,37.46
2022-10-11T11:06:46.617Z,38.67
2022-10-11T11:09:30.744Z,36.68
2022-10-11T11:12:12.667Z,36.59
2022-10-11T11:14:50.566Z,37.01
2022-10-11T11:17:30.027Z,36.08
2022-10-11T11:20:14.989Z,35.32
2022-10-11T11:22:53.362Z,35.96
2022-10-11T11:25:31.655Z,35.26
2022-10-11T11:28:14.137Z,35.64
2022-10-11T11:30:51.954Z,36.55
2022-10-11T11:33:26.115Z,37.99
2022-10-11T11:35:55.105Z,36.62
2022-10-11T11:38:30.005Z,38.50
2022-10-11T11:41:01.912Z,39.05
2022-10-11T11:43:36.253Z,39.15
2022-10-11T11:46:09.586Z,39.36
2022-10-11T11:48:38.502Z,40.11
2022-10-11T11:51:11.378Z,41.40
2022-10-11T11:53:52.906Z,41.53
2022-10-11T11:56:28.076Z,41.22
2022-10-11T11:59:05.124Z,42.40
2022-10-11T12:01:40.425Z,42.64
2022-10-11T12:04:15.049Z,42.72
2022-10-11T12:07:04.170Z,42.44
2022-10-11T12:09:33.516Z,43.21
2022-10-11T12:12:04.791Z,43.07
2022-10-11T12:14:39.005Z,42.76
2022-10-11T12:17:17.127Z,42.13
2022-10-11T12:20:02.918Z,41.23
2022-10-11T12:23:01.190Z,40.08
2022-10-11T12:25:43.049Z,39.29
2022-10-11T12:29:03.615Z,38.99
2022-10-11T12:31:34.308Z,37.31
2022-10-11T12:34:36.228Z,37.22
2022-10-11T12:37:50.000Z,36.69
2022-10-11T12:40:41.715Z,36.81
2022-10-11T12:43:31.530Z,36.50
2022-10-11T12:46:40.227Z,35.40
2022-10-11T12:49:29.044Z,34.87
2022-10-11T12:52:01.839Z,35.53
2022-10-11T12:55:01.377Z,36.22
2022-10-11T12:58:07.546Z,36.71
2022-10-11T13:00:45.569Z,37.06
2022-10-11T13:03:32.502Z,37.54
2022-10-11T13:06:02.120Z,37.40
2022-10-11T13:08:32.773Z,35.45
2022-10-11T13:11:03.823Z,36.60
2022-10-11T13:13:34.293Z,33.98
2022-10-11T13:16:10.038Z,33.70
2022-10-11T13:18:37.801Z,32.74
2022-10-11T13:21:21.470Z,34.22
2022-10-11T13:23:55.683Z,34.67
2022-10-11T13:26:23.813Z,34.20
2022-10-11T13:28:51.975Z,34.35
2022-10-11T13:31:21.127Z,33.75
2022-10-11T13:33:49.049Z,33.42
2022-10-11T13:36:19.357Z,34.40
2022-10-11T13:38:53.470Z,34.49
2022-10-11T13:41:22.196Z,34.29
2022-10-11T13:43:50.819Z,35.76
2022-10-11T13:46:24.111Z,36.67
2022-10-11T13:48:59.921Z,36.60
2022-10-11T13:51:30.107Z,37.85
2022-10-11T13:53:59.405Z,37.52
2022-10-11T13:56:28.481Z,37.78
2022-10-11T13:58:56.615Z,38.06
2022-10-11T14:01:27.916Z,38.79
2022-10-11T14:03:58.472Z,37.50
2022-10-11T14:06:39.558Z,39.07
2022-10-11T14:09:07.947Z,38.00
2022-10-11T14:11:37.494Z,39.97
2022-10-11T14:14:29.948Z,40.28
2022-10-11T14:17:06.198Z,41.23
2022-10-11T14:19:33.948Z,39.94
2022-10-11T14:22:01.747Z,40.31
2022-10-11T14:24:29.485Z,41.58
2022-10-11T14:26:58.438Z,41.62
2022-10-11T14:29:28.879Z,39.82
2022-10-11T14:32:00.081Z,39.27
2022-10-11T14:34:29.870Z,38.41
2022-10-11T14:36:57.689Z,37.38
2022-10-11T14:39:28.762Z,36.43
2022-10-11T14:41:56.572Z,35.90
2022-10-11T14:44:25.979Z,35.77
2022-10-11T14:46:55.063Z,35.88
2022-10-11T14:49:25.567Z,35.40
2022-10-11T14:51:57.079Z,36.13
2022-10-11T14:54:26.913Z,35.18
2022-10-11T14:56:57.497Z,35.70
2022-10-11T14:59:28.213Z,34.32
2022-10-11T15:01:56.019Z,35.72
2022-10-11T15:04:25.932Z,35.25
2022-10-11T15:06:56.973Z,35.74
2022-10-11T15:09:29.182Z,36.08
2022-10-11T15:11:57.581Z,36.75
2022-10-11T15:14:26.246Z,36.31
2022-10-11T15:16:56.061Z,36.64
2022-10-11T15:19:25.773Z,36.74
2022-10-11T15:21:55.239Z,36.85
2022-10-11T15:24:23.041Z,37.37
2022-10-11T15:26:50.928Z,38.18
2022-10-11T15:29:20.312Z,38.40
2022-10-11T15:31:49.233Z,39.19
2022-10-11T15:34:17.124Z,39.20
2022-10-11T15:36:44.893Z,39.77
2022-10-11T15:39:27.097Z,40.13
2022-10-11T15:41:54.845Z,39.75
2022-10-11T15:44:22.623Z,39.96
2022-10-11T15:46:50.440Z,39.92
2022-10-11T15:49:19.042Z,40.21
2022-10-11T15:51:46.964Z,40.76
2022-10-11T15:54:14.725Z,41.44
2022-10-11T15:56:44.203Z,42.22
2022-10-11T15:59:12.652Z,43.10
2022-10-11T16:01:40.782Z,43.44
2022-10-11T16:04:08.638Z,43.45
2022-10-11T16:06:36.412Z,43.59
2022-10-11T16:09:04.759Z,44.65
2022-10-11T16:11:32.484Z,44.86
2022-10-11T16:14:01.621Z,44.76
2022-10-11T16:16:29.470Z,44.73
2022-10-11T16:18:57.216Z,45.92
2022-10-11T16:21:25.015Z,46.00
2022-10-11T16:23:52.773Z,46.51
2022-10-11T16:26:20.574Z,46.85
2022-10-11T16:28:48.715Z,47.53
2022-10-11T16:31:20.883Z,48.39
2022-10-11T16:33:50.113Z,49.57
2022-10-11T16:36:39.941Z,50.47
2022-10-11T16:39:10.368Z,50.86
2022-10-11T16:41:38.710Z,51.21
2022-10-11T16:44:07.137Z,51.71
2022-10-11T16:46:36.225Z,51.83
2022-10-11T16:49:04.590Z,52.11
2022-10-11T16:51:32.450Z,52.25
2022-10-11T16:54:00.360Z,52.80
2022-10-11T16:56:28.217Z,53.11
2022-10-11T16:58:55.958Z,53.21
2022-10-11T17:01:23.961Z,53.99
2022-10-11T17:03:53.765Z,55.13
2022-10-11T17:06:23.134Z,55.68
2022-10-11T17:08:51.146Z,56.90
2022-10-11T17:11:20.141Z,58.15
2022-10-11T17:13:48.107Z,57.48
2022-10-11T17:16:16.583Z,57.69
2022-10-11T17:18:44.767Z,57.41
2022-10-11T17:21:16.117Z,57.78
2022-10-11T17:23:44.167Z,58.09
2022-10-11T17:26:16.826Z,58.32
2022-10-11T17:28:45.246Z,59.22
2022-10-11T17:31:13.046Z,59.79
2022-10-11T17:33:40.814Z,60.52
2022-10-11T17:36:23.607Z,61.59
2022-10-11T17:38:52.568Z,62.77
2022-10-11T17:41:20.860Z,62.83
2022-10-11T17:43:48.830Z,63.11
2022-10-11T17:46:18.513Z,63.20
2022-10-11T17:48:46.224Z,64.81
2022-10-11T17:51:16.175Z,65.84
2022-10-11T17:53:47.482Z,66.41
2022-10-11T17:56:17.993Z,66.17
2022-10-11T17:58:46.378Z,65.90
2022-10-11T18:01:17.089Z,65.49
2022-10-11T18:03:45.850Z,64.96
2022-10-11T18:06:14.817Z,65.38
2022-10-11T18:08:42.716Z,65.65
2022-10-11T18:11:13.630Z,65.54
2022-10-11T18:13:45.839Z,66.88
2022-10-11T18:16:14.197Z,67.76
2022-10-11T18:18:42.308Z,68.86
2022-10-11T18:21:10.609Z,69.83
2022-10-11T18:23:38.435Z,70.44
2022-10-11T18:26:12.334Z,70.12
2022-10-11T18:28:40.678Z,70.37
2022-10-11T18:31:12.927Z,70.16
2022-10-11T18:33:42.287Z,69.79
2022-10-11T18:36:13.249Z,70.37
2022-10-11T18:38:43.820Z,69.87
2022-10-11T18:41:15.820Z,71.08
2022-10-11T18:43:43.816Z,71.57
2022-10-11T18:46:16.139Z,71.35
2022-10-11T18:48:45.745Z,71.35
2022-10-11T18:51:15.815Z,70.80
2022-10-11T18:53:43.649Z,70.49
2022-10-11T18:56:15.084Z,70.17
2022-10-11T18:58:44.147Z,69.81
2022-10-11T19:01:15.852Z,69.90
2022-10-11T19:03:44.231Z,69.98
2022-10-11T19:06:17.108Z,70.44
2022-10-11T19:08:45.579Z,71.22
2022-10-11T19:11:15.610Z,72.16
2022-10-11T19:13:43.961Z,73.13
2022-10-11T19:16:13.493Z,73.33
2022-10-11T19:18:44.278Z,73.22
2022-10-11T19:21:14.480Z,72.95
2022-10-11T19:23:44.173Z,72.82
2022-10-11T19:26:16.503Z,72.50
2022-10-11T19:28:45.420Z,72.53
2022-10-11T19:31:16.822Z,73.05
2022-10-11T19:33:45.158Z,72.84
2022-10-11T19:36:14.449Z,73.10
2022-10-11T19:38:46.082Z,72.90
2022-10-11T19:41:16.912Z,73.11
2022-10-11T19:43:45.028Z,73.67
2022-10-11T19:46:20.252Z,73.10
2022-10-11T19:48:55.518Z,72.23
2022-10-11T19:51:25.771Z,72.22
2022-10-11T19:53:56.724Z,71.79
2022-10-11T19:56:27.197Z,72.49
2022-10-11T19:58:55.198Z,72.55
2022-10-11T20:01:25.416Z,72.34
2022-10-11T20:03:55.686Z,72.18
2022-10-11T20:06:25.322Z,72.11
2022-10-11T20:09:16.667Z,71.86
2022-10-11T20:11:44.470Z,72.28
2022-10-11T20:14:12.249Z,72.86
2022-10-11T20:16:41.436Z,73.90
2022-10-11T20:19:09.218Z,74.36
2022-10-11T20:21:36.951Z,74.90
2022-10-11T20:24:06.897Z,74.63
2022-10-11T20:26:34.984Z,73.97
2022-10-11T20:29:04.067Z,73.43
2022-10-11T20:31:33.855Z,73.34
2022-10-11T20:34:04.870Z,73.17
2022-10-11T20:36:34.309Z,73.16
2022-10-11T20:39:02.279Z,72.90
2022-10-11T20:41:32.288Z,72.51
2022-10-11T20:44:01.951Z,72.12
2022-10-11T20:46:32.575Z,71.87
2022-10-11T20:49:02.528Z,72.25
2022-10-11T20:51:31.121Z,72.16
2022-10-11T20:54:00.519Z,71.49
2022-10-11T20:56:29.680Z,72.06
2022-10-11T20:58:58.942Z,71.69
2022-10-11T21:01:28.929Z,72.05
2022-10-11T21:04:00.217Z,72.57
2022-10-11T21:06:28.878Z,73.29
2022-10-11T21:08:58.754Z,73.57
2022-10-11T21:11:27.031Z,73.78
2022-10-11T21:13:56.333Z,74.10
2022-10-11T21:16:24.427Z,73.47
2022-10-11T21:18:52.889Z,74.17
2022-10-11T21:21:23.466Z,74.61
2022-10-11T21:23:54.508Z,74.60
2022-10-11T21:26:22.306Z,74.99
2022-10-11T21:28:50.178Z,74.79
2022-10-11T21:31:19.729Z,75.00
2022-10-11T21:33:47.936Z,75.51
2022-10-11T21:36:17.583Z,75.91
2022-10-11T21:38:47.434Z,76.56
2022-10-11T21:41:17.869Z,76.63
2022-10-11T21:43:45.650Z,76.60
2022-10-11T21:46:16.501Z,76.83
2022-10-11T21:48:44.588Z,75.83
2022-10-11T21:53:49.228Z,75.38
2022-10-11T21:56:17.002Z,75.59
2022-10-11T21:58:47.006Z,75.03
2022-10-11T22:01:14.950Z,75.22
2022-10-11T22:03:42.714Z,74.94
2022-10-11T22:06:11.114Z,74.89
2022-10-11T22:08:39.236Z,75.25
2022-10-11T22:11:09.647Z,75.08
2022-10-11T22:13:37.921Z,75.06
2022-10-11T22:16:07.081Z,75.28
2022-10-11T22:18:34.928Z,75.32
2022-10-11T22:21:04.387Z,75.85
2022-10-11T22:23:32.140Z,76.32
2022-10-11T22:26:04.033Z,77.04
2022-10-11T22:28:33.511Z,77.16
2022-10-11T22:31:01.887Z,77.13
2022-10-11T22:33:29.672Z,76.89
2022-10-11T22:35:57.801Z,77.36
2022-10-11T22:38:26.335Z,78.02
2022-10-11T22:40:54.721Z,78.01
2022-10-11T22:43:22.486Z,77.50
2022-10-11T22:45:51.631Z,77.31
2022-10-11T22:48:19.407Z,77.61
2022-10-11T22:50:47.416Z,78.43
2022-10-11T22:53:16.220Z,77.92
2022-10-11T22:55:44.161Z,77.62
2022-10-11T22:58:11.875Z,77.37
2022-10-11T23:00:39.658Z,77.65
2022-10-11T23:03:08.750Z,77.68
2022-10-11T23:05:36.611Z,77.90
2022-10-11T23:08:04.502Z,78.26
2022-10-11T23:10:32.273Z,78.34
2022-10-11T23:12:59.954Z,78.39
2022-10-11T23:15:27.706Z,78.58
2022-10-11T23:17:55.438Z,78.40
2022-10-11T23:20:24.522Z,78.06
2022-10-11T23:22:52.260Z,77.79
2022-10-11T23:25:20.008Z,77.88
2022-10-11T23:27:47.798Z,78.50
2022-10-11T23:30:15.845Z,79.47
2022-10-11T23:32:43.682Z,79.38
2022-10-11T23:35:11.377Z,79.78
2022-10-11T23:37:40.631Z,80.44
2022-10-11T23:40:10.401Z,80.58
2022-10-11T23:42:38.245Z,80.68
2022-10-11T23:45:07.043Z,80.75
2022-10-11T23:47:35.002Z,80.51
2022-10-11T23:50:02.961Z,79.93
2022-10-11T23:52:30.730Z,79.61
2022-10-11T23:54:59.828Z,79.82
2022-10-11T23:57:27.584Z,79.59
2022-10-11T23:59:55.290Z,79.83
